createdAt,value
2023-05-12T00:00:03.256Z,8.70
2023-05-12T00:00:13.360Z,8.70
2023-05-12T00:00:23.218Z,8.70
2023-05-12T00:00:33.229Z,8.70
2023-05-12T00:00:43.264Z,8.69
2023-05-12T00:00:53.248Z,8.70
2023-05-12T00:01:03.233Z,8.69
2023-05-12T00:01:23.237Z,8.67
2023-05-12T00:01:33.285Z,8.67
2023-05-12T00:01:43.279Z,8.69
2023-05-12T00:01:53.248Z,8.67
2023-05-12T00:02:03.239Z,8.69
2023-05-12T00:02:13.328Z,8.69
2023-05-12T00:02:23.306Z,8.69
2023-05-12T00:02:33.301Z,8.69
2023-05-12T00:02:53.282Z,8.69
2023-05-12T00:03:03.290Z,8.69
2023-05-12T00:03:13.332Z,8.69
2023-05-12T00:03:23.353Z,8.69
2023-05-12T00:03:33.319Z,8.69
2023-05-12T00:03:43.448Z,8.69
2023-05-12T00:04:03.491Z,8.69
2023-05-12T00:04:13.293Z,8.69
2023-05-12T00:04:23.279Z,8.70
2023-05-12T00:04:33.352Z,8.69
2023-05-12T00:04:43.292Z,8.70
2023-05-12T00:04:53.282Z,8.69
2023-05-12T00:05:03.352Z,8.70
2023-05-12T00:05:13.288Z,8.69
2023-05-12T00:05:23.236Z,8.69
2023-05-12T00:05:33.246Z,8.69
2023-05-12T00:05:43.248Z,8.69
2023-05-12T00:05:53.250Z,8.70
2023-05-12T00:06:03.249Z,8.70
2023-05-12T00:06:23.262Z,8.67
2023-05-12T00:06:33.254Z,8.69
2023-05-12T00:06:43.289Z,8.67
2023-05-12T00:06:53.253Z,8.67
2023-05-12T00:07:03.261Z,8.66
2023-05-12T00:07:13.269Z,8.67
2023-05-12T00:07:23.269Z,8.69
2023-05-12T00:07:33.267Z,8.67
2023-05-12T00:07:53.262Z,8.66
2023-05-12T00:08:03.308Z,8.64
2023-05-12T00:08:13.257Z,8.67
2023-05-12T00:08:23.287Z,8.66
2023-05-12T00:08:33.266Z,8.66
2023-05-12T00:08:43.262Z,8.64
2023-05-12T00:09:03.264Z,8.64
2023-05-12T00:09:13.266Z,8.64
2023-05-12T00:09:23.301Z,8.63
2023-05-12T00:09:33.286Z,8.62
2023-05-12T00:09:43.263Z,8.64
2023-05-12T00:09:53.267Z,8.63
2023-05-12T00:10:03.275Z,8.63
2023-05-12T00:10:13.296Z,8.64
2023-05-12T00:10:33.272Z,8.63
2023-05-12T00:10:43.265Z,8.62
2023-05-12T00:10:53.268Z,8.62
2023-05-12T00:11:03.267Z,8.62
2023-05-12T00:11:13.281Z,8.60
2023-05-12T00:11:23.267Z,8.60
2023-05-12T00:11:33.270Z,8.62
2023-05-12T00:11:43.271Z,8.62
2023-05-12T00:11:53.292Z,8.59
2023-05-12T00:12:03.274Z,8.62
2023-05-12T00:12:13.276Z,8.60
2023-05-12T00:12:23.280Z,8.62
2023-05-12T00:12:33.278Z,8.62
2023-05-12T00:12:43.274Z,8.60
2023-05-12T00:13:03.297Z,8.59
2023-05-12T00:13:13.305Z,8.60
2023-05-12T00:13:23.543Z,8.59
2023-05-12T00:13:33.311Z,8.60
2023-05-12T00:13:43.429Z,8.59
2023-05-12T00:13:53.342Z,8.59
2023-05-12T00:14:13.288Z,8.62
2023-05-12T00:14:23.280Z,8.60
2023-05-12T00:14:33.289Z,8.63
2023-05-12T00:14:43.284Z,8.62
2023-05-12T00:14:53.281Z,8.62
2023-05-12T00:15:03.325Z,8.62
2023-05-12T00:15:13.338Z,8.62
2023-05-12T00:15:23.281Z,8.64
2023-05-12T00:15:33.285Z,8.64
2023-05-12T00:15:43.286Z,8.64
2023-05-12T00:15:53.281Z,8.64
2023-05-12T00:16:13.352Z,8.63
2023-05-12T00:16:23.317Z,8.64
2023-05-12T00:16:33.325Z,8.64
2023-05-12T00:16:43.335Z,8.66
2023-05-12T00:16:53.333Z,8.64
2023-05-12T00:17:03.289Z,8.66
2023-05-12T00:17:23.329Z,8.64
2023-05-12T00:17:33.298Z,8.64
2023-05-12T00:17:43.340Z,8.64
2023-05-12T00:17:53.353Z,8.64
2023-05-12T00:18:03.362Z,8.66
2023-05-12T00:18:13.291Z,8.64
2023-05-12T00:18:23.416Z,8.63
2023-05-12T00:18:33.318Z,8.64
2023-05-12T00:18:43.308Z,8.64
2023-05-12T00:18:53.431Z,8.64
2023-05-12T00:19:03.352Z,8.64
2023-05-12T00:19:13.312Z,8.63
2023-05-12T00:19:33.331Z,8.63
2023-05-12T00:19:43.310Z,8.63
2023-05-12T00:19:53.298Z,8.64
2023-05-12T00:20:03.302Z,8.63
2023-05-12T00:20:13.310Z,8.63
2023-05-12T00:20:23.350Z,8.63
2023-05-12T00:20:43.313Z,8.63
2023-05-12T00:20:53.307Z,8.62
2023-05-12T00:21:03.304Z,8.63
2023-05-12T00:21:13.300Z,8.63
2023-05-12T00:21:23.316Z,8.62
2023-05-12T00:21:33.315Z,8.62
2023-05-12T00:21:43.338Z,8.63
2023-05-12T00:21:53.309Z,8.63
2023-05-12T00:22:03.316Z,8.62
2023-05-12T00:22:13.325Z,8.62
2023-05-12T00:22:23.317Z,8.63
2023-05-12T00:22:33.312Z,8.62
2023-05-12T00:22:43.375Z,8.62
2023-05-12T00:22:53.318Z,8.62
2023-05-12T00:23:03.316Z,8.60
2023-05-12T00:23:13.329Z,8.62
2023-05-12T00:23:23.333Z,8.62
2023-05-12T00:23:33.330Z,8.62
2023-05-12T00:23:53.327Z,8.60
2023-05-12T00:24:03.317Z,8.60
2023-05-12T00:24:13.318Z,8.60
2023-05-12T00:24:23.333Z,8.62
2023-05-12T00:24:33.320Z,8.60
2023-05-12T00:24:43.320Z,8.62
2023-05-12T00:25:03.319Z,8.62
2023-05-12T00:25:13.321Z,8.62
2023-05-12T00:25:23.355Z,8.62
2023-05-12T00:25:33.336Z,8.62
2023-05-12T00:25:43.325Z,8.63
2023-05-12T00:25:53.327Z,8.62
2023-05-12T00:26:03.328Z,8.63
2023-05-12T00:26:13.330Z,8.62
2023-05-12T00:26:23.400Z,8.62
2023-05-12T00:26:33.327Z,8.62
2023-05-12T00:26:43.329Z,8.62
2023-05-12T00:26:53.336Z,8.62
2023-05-12T00:27:03.345Z,8.62
2023-05-12T00:27:13.332Z,8.62
2023-05-12T00:27:33.330Z,8.62
2023-05-12T00:27:43.337Z,8.62
2023-05-12T00:27:53.334Z,8.62
2023-05-12T00:28:03.335Z,8.63
2023-05-12T00:28:13.334Z,8.63
2023-05-12T00:28:23.342Z,8.60
2023-05-12T00:28:33.337Z,8.62
2023-05-12T00:28:43.335Z,8.62
2023-05-12T00:28:53.355Z,8.63
2023-05-12T00:29:03.341Z,8.60
2023-05-12T00:29:13.369Z,8.60
2023-05-12T00:29:23.344Z,8.62
2023-05-12T00:29:33.340Z,8.62
2023-05-12T00:29:43.340Z,8.63
2023-05-12T00:29:53.348Z,8.62
2023-05-12T00:30:03.342Z,8.63
2023-05-12T00:30:13.351Z,8.66
2023-05-12T00:30:23.378Z,8.64
2023-05-12T00:30:33.349Z,8.66
2023-05-12T00:30:43.354Z,8.64
2023-05-12T00:30:53.355Z,8.66
2023-05-12T00:31:03.344Z,8.66
2023-05-12T00:31:23.387Z,8.64
2023-05-12T00:31:33.380Z,8.66
2023-05-12T00:31:43.374Z,8.66
2023-05-12T00:31:53.398Z,8.63
2023-05-12T00:32:03.616Z,8.66
2023-05-12T00:32:13.360Z,8.66
2023-05-12T00:32:23.394Z,8.64
2023-05-12T00:32:33.365Z,8.67
2023-05-12T00:32:43.421Z,8.66
2023-05-12T00:32:53.391Z,8.66
2023-05-12T00:33:03.418Z,8.66
2023-05-12T00:33:13.394Z,8.64
2023-05-12T00:33:23.356Z,8.64
2023-05-12T00:33:33.359Z,8.66
2023-05-12T00:33:43.364Z,8.64
2023-05-12T00:33:53.376Z,8.64
2023-05-12T00:34:03.359Z,8.63
2023-05-12T00:34:13.360Z,8.64
2023-05-12T00:34:23.362Z,8.62
2023-05-12T00:34:33.360Z,8.63
2023-05-12T00:34:53.357Z,8.62
2023-05-12T00:35:03.369Z,8.62
2023-05-12T00:35:13.365Z,8.62
2023-05-12T00:35:23.376Z,8.62
2023-05-12T00:35:33.361Z,8.62
2023-05-12T00:35:43.366Z,8.60
2023-05-12T00:35:53.361Z,8.62
2023-05-12T00:36:03.366Z,8.59
2023-05-12T00:36:13.370Z,8.60
2023-05-12T00:36:33.390Z,8.60
2023-05-12T00:36:43.377Z,8.59
2023-05-12T00:36:53.373Z,8.59
2023-05-12T00:37:03.374Z,8.60
2023-05-12T00:37:13.367Z,8.60
2023-05-12T00:37:23.369Z,8.60
2023-05-12T00:37:33.394Z,8.60
2023-05-12T00:37:43.378Z,8.60
2023-05-12T00:37:53.360Z,8.60
2023-05-12T00:38:03.372Z,8.60
2023-05-12T00:38:13.379Z,8.60
2023-05-12T00:38:23.382Z,8.60
2023-05-12T00:38:33.393Z,8.60
2023-05-12T00:38:43.406Z,8.60
2023-05-12T00:38:53.376Z,8.60
2023-05-12T00:39:03.383Z,8.62
2023-05-12T00:39:13.380Z,8.62
2023-05-12T00:39:33.383Z,8.60
2023-05-12T00:39:43.415Z,8.62
2023-05-12T00:39:53.379Z,8.63
2023-05-12T00:40:03.380Z,8.60
2023-05-12T00:40:13.394Z,8.62
2023-05-12T00:40:23.393Z,8.62
2023-05-12T00:40:33.388Z,8.62
2023-05-12T00:40:43.410Z,8.60
2023-05-12T00:40:53.386Z,8.62
2023-05-12T00:41:03.406Z,8.63
2023-05-12T00:41:13.397Z,8.62
2023-05-12T00:41:33.406Z,8.63
2023-05-12T00:41:43.395Z,8.63
2023-05-12T00:41:53.396Z,8.63
2023-05-12T00:42:03.393Z,8.62
2023-05-12T00:42:13.416Z,8.62
2023-05-12T00:42:23.389Z,8.63
2023-05-12T00:42:33.394Z,8.63
2023-05-12T00:42:43.419Z,8.63
2023-05-12T00:42:53.399Z,8.62
2023-05-12T00:43:03.401Z,8.63
2023-05-12T00:43:23.398Z,8.63
2023-05-12T00:43:33.396Z,8.63
2023-05-12T00:43:43.414Z,8.63
2023-05-12T00:43:53.400Z,8.63
2023-05-12T00:44:03.399Z,8.63
2023-05-12T00:44:13.423Z,8.64
2023-05-12T00:44:23.404Z,8.64
2023-05-12T00:44:33.400Z,8.64
2023-05-12T00:44:43.418Z,8.66
2023-05-12T00:45:03.408Z,8.66
2023-05-12T00:45:13.413Z,8.66
2023-05-12T00:45:23.416Z,8.66
2023-05-12T00:45:33.457Z,8.67
2023-05-12T00:45:43.460Z,8.66
2023-05-12T00:45:53.436Z,8.66
2023-05-12T00:46:03.489Z,8.66
2023-05-12T00:46:13.468Z,8.67
2023-05-12T00:46:33.410Z,8.66
2023-05-12T00:46:43.436Z,8.66
2023-05-12T00:46:53.425Z,8.66
2023-05-12T00:47:03.418Z,8.66
2023-05-12T00:47:13.410Z,8.66
2023-05-12T00:47:23.428Z,8.66
2023-05-12T00:47:33.454Z,8.64
2023-05-12T00:47:43.495Z,8.66
2023-05-12T00:47:53.511Z,8.66
2023-05-12T00:48:03.542Z,8.66
2023-05-12T00:48:13.418Z,8.64
2023-05-12T00:48:23.427Z,8.64
2023-05-12T00:48:33.439Z,8.64
2023-05-12T00:48:43.430Z,8.64
2023-05-12T00:48:53.421Z,8.63
2023-05-12T00:49:03.426Z,8.64
2023-05-12T00:49:13.426Z,8.64
2023-05-12T00:49:23.426Z,8.63
2023-05-12T00:49:33.427Z,8.63
2023-05-12T00:49:43.460Z,8.64
2023-05-12T00:49:53.431Z,8.64
2023-05-12T00:50:03.459Z,8.64
2023-05-12T00:50:13.460Z,8.64
2023-05-12T00:50:23.441Z,8.64
2023-05-12T00:50:33.433Z,8.64
2023-05-12T00:50:53.439Z,8.63
2023-05-12T00:51:03.430Z,8.64
2023-05-12T00:51:13.433Z,8.64
2023-05-12T00:51:23.432Z,8.64
2023-05-12T00:51:33.432Z,8.64
2023-05-12T00:51:43.433Z,8.64
2023-05-12T00:51:53.453Z,8.64
2023-05-12T00:52:13.436Z,8.64
2023-05-12T00:52:23.434Z,8.64
2023-05-12T00:52:33.432Z,8.64
2023-05-12T00:52:43.435Z,8.64
2023-05-12T00:52:53.466Z,8.66
2023-05-12T00:53:03.446Z,8.66
2023-05-12T00:53:13.437Z,8.66
2023-05-12T00:53:23.444Z,8.66
2023-05-12T00:53:47.805Z,8.66
2023-05-12T00:53:49.922Z,8.66
2023-05-12T00:53:54.449Z,8.69
2023-05-12T00:54:03.462Z,8.69
2023-05-12T00:54:13.465Z,8.69
2023-05-12T00:54:23.473Z,8.69
2023-05-12T00:54:43.448Z,8.67
2023-05-12T00:54:53.454Z,8.69
2023-05-12T00:55:03.456Z,8.67
2023-05-12T00:55:13.450Z,8.66
2023-05-12T00:55:23.460Z,8.66
2023-05-12T00:55:33.449Z,8.67
2023-05-12T00:55:43.448Z,8.64
2023-05-12T00:55:53.456Z,8.66
2023-05-12T00:56:03.450Z,8.64
2023-05-12T00:56:13.451Z,8.64
2023-05-12T00:56:33.450Z,8.64
2023-05-12T00:56:43.452Z,8.64
2023-05-12T00:56:53.456Z,8.66
2023-05-12T00:57:03.460Z,8.64
2023-05-12T00:57:13.453Z,8.64
2023-05-12T00:57:23.456Z,8.64
2023-05-12T00:57:33.477Z,8.64
2023-05-12T00:57:43.454Z,8.63
2023-05-12T00:57:53.451Z,8.64
2023-05-12T00:58:03.515Z,8.64
2023-05-12T00:58:13.459Z,8.64
2023-05-12T00:58:23.469Z,8.63
2023-05-12T00:58:43.460Z,8.63
2023-05-12T00:58:53.461Z,8.63
2023-05-12T00:59:03.465Z,8.63
2023-05-12T00:59:13.467Z,8.63
2023-05-12T00:59:23.482Z,8.62
2023-05-12T00:59:33.469Z,8.60
2023-05-12T00:59:53.462Z,8.63
2023-05-12T01:00:03.465Z,8.62
2023-05-12T01:00:13.495Z,8.64
2023-05-12T01:00:23.481Z,8.62
2023-05-12T01:00:33.495Z,8.63
2023-05-12T01:00:43.472Z,8.63
2023-05-12T01:00:53.530Z,8.63
2023-05-12T01:01:03.535Z,8.62
2023-05-12T01:01:13.534Z,8.63
2023-05-12T01:01:33.571Z,8.63
2023-05-12T01:01:43.489Z,8.63
2023-05-12T01:01:53.475Z,8.63
2023-05-12T01:02:03.532Z,8.64
2023-05-12T01:02:13.559Z,8.64
2023-05-12T01:02:23.598Z,8.64
2023-05-12T01:02:33.597Z,8.64
2023-05-12T01:02:53.583Z,8.64
2023-05-12T01:03:03.589Z,8.64
2023-05-12T01:03:13.549Z,8.63
2023-05-12T01:03:23.552Z,8.64
2023-05-12T01:03:33.528Z,8.64
2023-05-12T01:03:43.566Z,8.66
2023-05-12T01:04:03.547Z,8.66
2023-05-12T01:04:13.496Z,8.64
2023-05-12T01:04:23.501Z,8.64
2023-05-12T01:04:33.487Z,8.66
2023-05-12T01:04:43.490Z,8.66
2023-05-12T01:04:53.483Z,8.66
2023-05-12T01:05:13.485Z,8.66
2023-05-12T01:05:23.496Z,8.67
2023-05-12T01:05:33.510Z,8.66
2023-05-12T01:05:43.494Z,8.66
2023-05-12T01:05:53.496Z,8.64
2023-05-12T01:06:03.486Z,8.66
2023-05-12T01:06:13.494Z,8.67
2023-05-12T01:06:33.494Z,8.66
2023-05-12T01:06:43.503Z,8.66
2023-05-12T01:06:53.493Z,8.67
2023-05-12T01:07:03.493Z,8.67
2023-05-12T01:07:13.495Z,8.67
2023-05-12T01:07:23.499Z,8.67
2023-05-12T01:07:33.554Z,8.67
2023-05-12T01:07:43.499Z,8.67
2023-05-12T01:07:53.505Z,8.67
2023-05-12T01:08:03.499Z,8.67
2023-05-12T01:08:13.499Z,8.69
2023-05-12T01:08:23.512Z,8.67
2023-05-12T01:08:33.516Z,8.66
2023-05-12T01:08:43.507Z,8.67
2023-05-12T01:08:53.505Z,8.64
2023-05-12T01:09:03.510Z,8.67
2023-05-12T01:09:13.506Z,8.69
2023-05-12T01:09:23.529Z,8.67
2023-05-12T01:09:33.504Z,8.69
2023-05-12T01:09:53.509Z,8.69
2023-05-12T01:10:03.518Z,8.69
2023-05-12T01:10:13.541Z,8.70
2023-05-12T01:10:23.642Z,8.69
2023-05-12T01:10:33.508Z,8.72
2023-05-12T01:10:43.520Z,8.72
2023-05-12T01:10:53.525Z,8.73
2023-05-12T01:11:03.512Z,8.73
2023-05-12T01:11:13.509Z,8.73
2023-05-12T01:11:33.509Z,8.75
2023-05-12T01:11:43.533Z,8.75
2023-05-12T01:11:53.516Z,8.75
2023-05-12T01:12:03.512Z,8.75
2023-05-12T01:12:13.516Z,8.75
2023-05-12T01:12:23.520Z,8.77
2023-05-12T01:12:33.522Z,8.77
2023-05-12T01:12:43.528Z,8.78
2023-05-12T01:12:53.529Z,8.78
2023-05-12T01:13:03.523Z,8.75
2023-05-12T01:13:13.530Z,8.78
2023-05-12T01:13:23.521Z,8.77
2023-05-12T01:13:33.577Z,8.77
2023-05-12T01:13:43.524Z,8.77
2023-05-12T01:13:53.523Z,8.77
2023-05-12T01:14:03.522Z,8.80
2023-05-12T01:14:13.530Z,8.78
2023-05-12T01:14:23.564Z,8.78
2023-05-12T01:14:43.526Z,8.78
2023-05-12T01:14:53.560Z,8.80
2023-05-12T01:15:03.525Z,8.80
2023-05-12T01:15:13.542Z,8.80
2023-05-12T01:15:23.536Z,8.81
2023-05-12T01:15:33.535Z,8.81
2023-05-12T01:15:43.536Z,8.81
2023-05-12T01:15:53.531Z,8.82
2023-05-12T01:16:03.531Z,8.81
2023-05-12T01:16:13.543Z,8.81
2023-05-12T01:16:33.545Z,8.82
2023-05-12T01:16:43.620Z,8.84
2023-05-12T01:16:53.642Z,8.84
2023-05-12T01:17:03.571Z,8.84
2023-05-12T01:17:13.596Z,8.84
2023-05-12T01:17:23.610Z,8.84
2023-05-12T01:17:33.627Z,8.82
2023-05-12T01:17:43.658Z,8.84
2023-05-12T01:17:53.636Z,8.85
2023-05-12T01:18:03.560Z,8.84
2023-05-12T01:18:13.651Z,8.85
2023-05-12T01:18:33.704Z,8.87
2023-05-12T01:18:43.658Z,8.85
2023-05-12T01:18:53.584Z,8.85
2023-05-12T01:19:03.654Z,8.84
2023-05-12T01:19:13.632Z,8.85
2023-05-12T01:19:23.551Z,8.85
2023-05-12T01:19:33.593Z,8.85
2023-05-12T01:19:43.557Z,8.84
2023-05-12T01:20:03.555Z,8.84
2023-05-12T01:20:13.605Z,8.85
2023-05-12T01:20:23.578Z,8.84
2023-05-12T01:20:33.552Z,8.85
2023-05-12T01:20:43.561Z,8.84
2023-05-12T01:20:53.553Z,8.82
2023-05-12T01:21:03.550Z,8.85
2023-05-12T01:21:23.562Z,8.87
2023-05-12T01:21:33.549Z,8.85
2023-05-12T01:21:43.563Z,8.85
2023-05-12T01:21:53.562Z,8.87
2023-05-12T01:22:03.562Z,8.85
2023-05-12T01:22:13.563Z,8.85
2023-05-12T01:22:23.564Z,8.87
2023-05-12T01:22:33.652Z,8.85
2023-05-12T01:22:43.562Z,8.85
2023-05-12T01:22:53.601Z,8.85
2023-05-12T01:23:03.562Z,8.85
2023-05-12T01:23:23.563Z,8.85
2023-05-12T01:23:33.578Z,8.85
2023-05-12T01:23:43.576Z,8.85
2023-05-12T01:23:53.592Z,8.87
2023-05-12T01:24:03.562Z,8.84
2023-05-12T01:24:13.577Z,8.85
2023-05-12T01:24:23.565Z,8.87
2023-05-12T01:24:43.568Z,8.88
2023-05-12T01:24:53.568Z,8.85
2023-05-12T01:25:03.581Z,8.85
2023-05-12T01:25:13.608Z,8.87
2023-05-12T01:25:23.620Z,8.87
2023-05-12T01:25:33.571Z,8.85
2023-05-12T01:25:43.563Z,8.85
2023-05-12T01:25:53.570Z,8.88
2023-05-12T01:26:03.574Z,8.88
2023-05-12T01:26:13.572Z,8.85
2023-05-12T01:26:33.580Z,8.88
2023-05-12T01:26:43.576Z,8.88
2023-05-12T01:26:53.575Z,8.88
2023-05-12T01:27:03.578Z,8.87
2023-05-12T01:27:13.587Z,8.87
2023-05-12T01:27:23.580Z,8.87
2023-05-12T01:27:33.582Z,8.87
2023-05-12T01:27:43.577Z,8.85
2023-05-12T01:27:53.576Z,8.84
2023-05-12T01:28:03.598Z,8.84
2023-05-12T01:28:13.582Z,8.82
2023-05-12T01:28:23.576Z,8.84
2023-05-12T01:28:33.584Z,8.81
2023-05-12T01:28:43.584Z,8.84
2023-05-12T01:28:53.584Z,8.82
2023-05-12T01:29:03.601Z,8.84
2023-05-12T01:29:13.580Z,8.81
2023-05-12T01:29:23.601Z,8.81
2023-05-12T01:29:33.598Z,8.82
2023-05-12T01:29:43.604Z,8.81
2023-05-12T01:29:53.588Z,8.81
2023-05-12T01:30:03.588Z,8.81
2023-05-12T01:30:13.587Z,8.81
2023-05-12T01:30:23.755Z,8.81
2023-05-12T01:30:33.587Z,8.80
2023-05-12T01:30:43.643Z,8.81
2023-05-12T01:30:53.649Z,8.81
2023-05-12T01:31:03.619Z,8.80
2023-05-12T01:31:13.651Z,8.80
2023-05-12T01:31:33.662Z,8.80
2023-05-12T01:31:43.645Z,8.80
2023-05-12T01:31:53.600Z,8.80
2023-05-12T01:32:03.586Z,8.80
2023-05-12T01:32:13.595Z,8.81
2023-05-12T01:32:23.628Z,8.80
2023-05-12T01:32:33.655Z,8.80
2023-05-12T01:32:53.646Z,8.81
2023-05-12T01:33:03.677Z,8.80
2023-05-12T01:33:13.624Z,8.77
2023-05-12T01:33:23.603Z,8.77
2023-05-12T01:33:33.624Z,8.77
2023-05-12T01:33:43.602Z,8.77
2023-05-12T01:33:53.610Z,8.75
2023-05-12T01:34:03.613Z,8.77
2023-05-12T01:34:13.606Z,8.77
2023-05-12T01:34:23.611Z,8.77
2023-05-12T01:34:33.653Z,8.77
2023-05-12T01:34:43.606Z,8.77
2023-05-12T01:34:53.591Z,8.77
2023-05-12T01:35:03.608Z,8.77
2023-05-12T01:35:13.618Z,8.77
2023-05-12T01:35:23.634Z,8.73
2023-05-12T01:35:33.628Z,8.73
2023-05-12T01:35:43.615Z,8.75
2023-05-12T01:35:53.612Z,8.73
2023-05-12T01:36:03.623Z,8.75
2023-05-12T01:36:13.629Z,8.75
2023-05-12T01:36:33.626Z,8.73
2023-05-12T01:36:43.619Z,8.73
2023-05-12T01:36:53.619Z,8.73
2023-05-12T01:37:03.605Z,8.73
2023-05-12T01:37:13.622Z,8.73
2023-05-12T01:37:23.617Z,8.73
2023-05-12T01:37:33.653Z,8.72
2023-05-12T01:37:43.622Z,8.72
2023-05-12T01:37:53.623Z,8.72
2023-05-12T01:38:03.643Z,8.70
2023-05-12T01:38:13.622Z,8.72
2023-05-12T01:38:23.621Z,8.73
2023-05-12T01:38:33.621Z,8.72
2023-05-12T01:38:43.626Z,8.72
2023-05-12T01:38:53.637Z,8.73
2023-05-12T01:39:03.629Z,8.75
2023-05-12T01:39:13.625Z,8.75
2023-05-12T01:39:33.628Z,8.77
2023-05-12T01:39:43.635Z,8.75
2023-05-12T01:39:53.643Z,8.78
2023-05-12T01:40:03.629Z,8.77
2023-05-12T01:40:13.634Z,8.78
2023-05-12T01:40:23.644Z,8.77
2023-05-12T01:40:33.640Z,8.77
2023-05-12T01:40:43.635Z,8.75
2023-05-12T01:40:53.645Z,8.78
2023-05-12T01:41:03.638Z,8.77
2023-05-12T01:41:13.632Z,8.78
2023-05-12T01:41:33.633Z,8.78
2023-05-12T01:41:43.638Z,8.78
2023-05-12T01:41:53.650Z,8.77
2023-05-12T01:42:03.632Z,8.77
2023-05-12T01:42:13.641Z,8.77
2023-05-12T01:42:23.629Z,8.77
2023-05-12T01:42:33.622Z,8.77
2023-05-12T01:42:53.656Z,8.77
2023-05-12T01:43:03.647Z,8.77
2023-05-12T01:43:13.639Z,8.77
2023-05-12T01:43:23.629Z,8.77
2023-05-12T01:43:33.634Z,8.77
2023-05-12T01:43:43.652Z,8.77
2023-05-12T01:43:53.644Z,8.75
2023-05-12T01:44:03.665Z,8.77
2023-05-12T01:44:13.642Z,8.75
2023-05-12T01:44:23.653Z,8.77
2023-05-12T01:44:33.642Z,8.73
2023-05-12T01:44:43.647Z,8.75
2023-05-12T01:44:53.646Z,8.73
2023-05-12T01:45:13.674Z,8.73
2023-05-12T01:45:23.653Z,8.72
2023-05-12T01:45:33.648Z,8.73
2023-05-12T01:45:43.648Z,8.73
2023-05-12T01:45:53.650Z,8.72
2023-05-12T01:46:03.685Z,8.72
2023-05-12T01:46:23.673Z,8.75
2023-05-12T01:46:33.675Z,8.73
2023-05-12T01:46:43.733Z,8.73
2023-05-12T01:46:53.829Z,8.73
2023-05-12T01:47:03.657Z,8.73
2023-05-12T01:47:13.656Z,8.72
2023-05-12T01:47:23.781Z,8.73
2023-05-12T01:47:33.694Z,8.70
2023-05-12T01:47:43.690Z,8.72
2023-05-12T01:47:53.689Z,8.72
2023-05-12T01:48:03.749Z,8.72
2023-05-12T01:48:13.672Z,8.70
2023-05-12T01:48:23.674Z,8.72
2023-05-12T01:48:33.661Z,8.70
2023-05-12T01:48:43.681Z,8.70
2023-05-12T01:48:53.677Z,8.72
2023-05-12T01:49:03.672Z,8.72
2023-05-12T01:49:13.667Z,8.73
2023-05-12T01:49:23.674Z,8.73
2023-05-12T01:49:33.684Z,8.70
2023-05-12T01:49:53.689Z,8.72
2023-05-12T01:50:03.672Z,8.72
2023-05-12T01:50:13.674Z,8.73
2023-05-12T01:50:23.675Z,8.72
2023-05-12T01:50:33.716Z,8.72
2023-05-12T01:50:43.685Z,8.72
2023-05-12T01:50:53.693Z,8.72
2023-05-12T01:51:03.679Z,8.70
2023-05-12T01:51:13.679Z,8.72
2023-05-12T01:51:23.691Z,8.72
2023-05-12T01:51:43.678Z,8.73
2023-05-12T01:51:53.690Z,8.72
2023-05-12T01:52:03.689Z,8.72
2023-05-12T01:52:13.685Z,8.72
2023-05-12T01:52:23.682Z,8.72
2023-05-12T01:52:33.680Z,8.73
2023-05-12T01:52:43.684Z,8.73
2023-05-12T01:52:53.673Z,8.72
2023-05-12T01:53:03.685Z,8.73
2023-05-12T01:53:13.691Z,8.73
2023-05-12T01:53:23.687Z,8.72
2023-05-12T01:53:33.684Z,8.73
2023-05-12T01:53:43.691Z,8.72
2023-05-12T01:53:53.704Z,8.73
2023-05-12T01:54:03.689Z,8.72
2023-05-12T01:54:13.692Z,8.73
2023-05-12T01:54:23.688Z,8.72
2023-05-12T01:54:33.693Z,8.72
2023-05-12T01:54:43.692Z,8.72
2023-05-12T01:54:53.714Z,8.72
2023-05-12T01:55:03.696Z,8.73
2023-05-12T01:55:23.694Z,8.72
2023-05-12T01:55:33.707Z,8.73
2023-05-12T01:55:43.699Z,8.75
2023-05-12T01:55:53.694Z,8.73
2023-05-12T01:56:03.698Z,8.73
2023-05-12T01:56:13.714Z,8.73
2023-05-12T01:56:23.696Z,8.73
2023-05-12T01:56:43.699Z,8.77
2023-05-12T01:56:53.698Z,8.77
2023-05-12T01:57:03.685Z,8.77
2023-05-12T01:57:13.698Z,8.77
2023-05-12T01:57:23.702Z,8.77
2023-05-12T01:57:33.701Z,8.77
2023-05-12T01:57:43.710Z,8.78
2023-05-12T01:57:53.706Z,8.78
2023-05-12T01:58:13.714Z,8.78
2023-05-12T01:58:23.705Z,8.80
2023-05-12T01:58:33.728Z,8.80
2023-05-12T01:58:43.729Z,8.81
2023-05-12T01:58:53.807Z,8.80
2023-05-12T01:59:03.762Z,8.80
2023-05-12T01:59:13.740Z,8.81
2023-05-12T01:59:23.727Z,8.81
2023-05-12T01:59:33.706Z,8.81
2023-05-12T01:59:43.720Z,8.80
2023-05-12T01:59:53.711Z,8.84
2023-05-12T02:00:03.707Z,8.84
2023-05-12T02:00:13.726Z,8.84
2023-05-12T02:00:23.718Z,8.85
2023-05-12T02:00:33.747Z,8.88
2023-05-12T02:00:43.712Z,8.88
2023-05-12T02:00:53.712Z,8.87
2023-05-12T02:01:03.736Z,8.88
2023-05-12T02:01:13.742Z,8.88
2023-05-12T02:01:23.819Z,8.90
2023-05-12T02:01:43.798Z,8.90
2023-05-12T02:01:53.751Z,8.90
2023-05-12T02:02:03.858Z,8.88
2023-05-12T02:02:13.739Z,8.90
2023-05-12T02:02:23.779Z,8.90
2023-05-12T02:02:33.767Z,8.90
2023-05-12T02:02:43.769Z,8.90
2023-05-12T02:02:53.801Z,8.90
2023-05-12T02:03:03.810Z,8.88
2023-05-12T02:03:13.806Z,8.91
2023-05-12T02:03:33.836Z,8.90
2023-05-12T02:03:43.847Z,8.90
2023-05-12T02:03:53.862Z,8.88
2023-05-12T02:04:03.997Z,8.90
2023-05-12T02:04:13.798Z,8.90
2023-05-12T02:04:23.759Z,8.91
2023-05-12T02:04:43.732Z,8.88
2023-05-12T02:04:53.717Z,8.88
2023-05-12T02:05:03.734Z,8.90
2023-05-12T02:05:13.748Z,8.88
2023-05-12T02:05:23.754Z,8.87
2023-05-12T02:05:33.772Z,8.87
2023-05-12T02:05:43.735Z,8.85
2023-05-12T02:05:53.738Z,8.85
2023-05-12T02:06:03.737Z,8.85
2023-05-12T02:06:13.764Z,8.85
2023-05-12T02:06:23.736Z,8.85
2023-05-12T02:06:43.740Z,8.85
2023-05-12T02:06:53.744Z,8.87
2023-05-12T02:07:03.744Z,8.87
2023-05-12T02:07:13.753Z,8.87
2023-05-12T02:07:23.741Z,8.85
2023-05-12T02:07:33.745Z,8.85
2023-05-12T02:07:43.753Z,8.87
2023-05-12T02:07:53.747Z,8.87
2023-05-12T02:08:03.779Z,8.87
2023-05-12T02:08:13.746Z,8.87
2023-05-12T02:08:23.747Z,8.88
2023-05-12T02:08:33.749Z,8.87
2023-05-12T02:08:43.752Z,8.87
2023-05-12T02:08:53.780Z,8.88
2023-05-12T02:09:03.754Z,8.87
2023-05-12T02:09:13.739Z,8.87
2023-05-12T02:09:23.775Z,8.88
2023-05-12T02:09:33.749Z,8.87
2023-05-12T02:09:43.756Z,8.88
2023-05-12T02:09:53.756Z,8.90
2023-05-12T02:10:03.798Z,8.88
2023-05-12T02:10:13.782Z,8.88
2023-05-12T02:10:23.785Z,8.88
2023-05-12T02:10:33.758Z,8.88
2023-05-12T02:10:43.775Z,8.87
2023-05-12T02:10:53.757Z,8.88
2023-05-12T02:11:03.806Z,8.87
2023-05-12T02:11:13.780Z,8.87
2023-05-12T02:11:33.762Z,8.87
2023-05-12T02:11:43.755Z,8.87
2023-05-12T02:11:53.753Z,8.87
2023-05-12T02:12:03.765Z,8.87
2023-05-12T02:12:13.773Z,8.87
2023-05-12T02:12:23.795Z,8.88
2023-05-12T02:12:33.767Z,8.85
2023-05-12T02:12:43.780Z,8.87
2023-05-12T02:12:53.770Z,8.87
2023-05-12T02:13:13.774Z,8.85
2023-05-12T02:13:23.779Z,8.85
2023-05-12T02:13:33.774Z,8.87
2023-05-12T02:13:43.767Z,8.85
2023-05-12T02:13:53.767Z,8.85
2023-05-12T02:14:03.768Z,8.85
2023-05-12T02:14:13.803Z,8.85
2023-05-12T02:14:33.770Z,8.85
2023-05-12T02:14:43.787Z,8.85
2023-05-12T02:14:53.781Z,8.85
2023-05-12T02:15:03.773Z,8.85
2023-05-12T02:15:13.794Z,8.85
2023-05-12T02:15:23.774Z,8.85
2023-05-12T02:15:33.777Z,8.85
2023-05-12T02:15:43.784Z,8.85
2023-05-12T02:15:53.801Z,8.85
2023-05-12T02:16:03.845Z,8.84
2023-05-12T02:16:13.823Z,8.85
2023-05-12T02:16:23.845Z,8.85
2023-05-12T02:16:33.839Z,8.84
2023-05-12T02:16:43.919Z,8.84
2023-05-12T02:16:53.787Z,8.85
2023-05-12T02:17:03.809Z,8.82
2023-05-12T02:17:13.789Z,8.84
2023-05-12T02:17:23.807Z,8.84
2023-05-12T02:17:33.819Z,8.84
2023-05-12T02:17:43.821Z,8.82
2023-05-12T02:17:53.886Z,8.82
2023-05-12T02:18:03.890Z,8.82
2023-05-12T02:18:23.834Z,8.82
2023-05-12T02:18:33.815Z,8.82
2023-05-12T02:18:43.803Z,8.81
2023-05-12T02:18:53.861Z,8.84
2023-05-12T02:19:03.881Z,8.81
2023-05-12T02:19:13.800Z,8.81
2023-05-12T02:19:33.819Z,8.81
2023-05-12T02:19:43.801Z,8.82
2023-05-12T02:19:53.820Z,8.82
2023-05-12T02:20:03.807Z,8.81
2023-05-12T02:20:13.814Z,8.80
2023-05-12T02:20:23.798Z,8.80
2023-05-12T02:20:33.821Z,8.80
2023-05-12T02:20:43.805Z,8.80
2023-05-12T02:20:53.828Z,8.81
2023-05-12T02:21:03.813Z,8.80
2023-05-12T02:21:23.815Z,8.80
2023-05-12T02:21:33.833Z,8.80
2023-05-12T02:21:43.808Z,8.78
2023-05-12T02:21:53.835Z,8.78
2023-05-12T02:22:03.816Z,8.78
2023-05-12T02:22:13.812Z,8.80
2023-05-12T02:22:23.811Z,8.78
2023-05-12T02:22:33.810Z,8.80
2023-05-12T02:22:43.823Z,8.80
2023-05-12T02:22:53.829Z,8.78
2023-05-12T02:23:03.814Z,8.77
2023-05-12T02:23:13.815Z,8.78
2023-05-12T02:23:23.822Z,8.80
2023-05-12T02:23:33.826Z,8.78
2023-05-12T02:23:43.815Z,8.78
2023-05-12T02:23:53.834Z,8.78
2023-05-12T02:24:03.818Z,8.80
2023-05-12T02:24:14.985Z,8.80
2023-05-12T02:24:23.822Z,8.78